sensor_id;sensor_type;location;lat;lon;timestamp;P1;durP1;ratioP1;P2;durP2;ratioP2
38613;SDS011;24369;49.480;8.488;2022-07-21T00:00:27;189.85;;;170.32;;
38613;SDS011;24369;49.480;8.488;2022-07-21T00:02:53;156.00;;;140.13;;
38613;SDS011;24369;49.480;8.488;2022-07-21T00:05:20;167.57;;;149.85;;
38613;SDS011;24369;49.480;8.488;2022-07-21T00:07:45;158.32;;;142.15;;
38613;SDS011;24369;49.480;8.488;2022-07-21T00:10:11;166.38;;;148.50;;
38613;SDS011;24369;49.480;8.488;2022-07-21T00:12:37;159.82;;;142.75;;
38613;SDS011;24369;49.480;8.488;2022-07-21T00:15:04;152.82;;;136.80;;
38613;SDS011;24369;49.480;8.488;2022-07-21T00:17:30;165.35;;;147.60;;
38613;SDS011;24369;49.480;8.488;2022-07-21T00:19:55;159.30;;;142.30;;
38613;SDS011;24369;49.480;8.488;2022-07-21T00:22:21;167.88;;;149.27;;
38613;SDS011;24369;49.480;8.488;2022-07-21T00:24:46;160.05;;;141.73;;
38613;SDS011;24369;49.480;8.488;2022-07-21T00:27:12;173.27;;;154.60;;
38613;SDS011;24369;49.480;8.488;2022-07-21T00:29:37;167.77;;;149.30;;
38613;SDS011;24369;49.480;8.488;2022-07-21T00:32:02;157.65;;;140.38;;
38613;SDS011;24369;49.480;8.488;2022-07-21T00:34:30;182.00;;;155.90;;
38613;SDS011;24369;49.480;8.488;2022-07-21T00:36:56;163.98;;;143.98;;
38613;SDS011;24369;49.480;8.488;2022-07-21T00:39:22;172.80;;;147.40;;
38613;SDS011;24369;49.480;8.488;2022-07-21T00:41:47;162.13;;;144.50;;
38613;SDS011;24369;49.480;8.488;2022-07-21T00:44:23;159.10;;;140.57;;
38613;SDS011;24369;49.480;8.488;2022-07-21T00:46:50;162.30;;;142.90;;
38613;SDS011;24369;49.480;8.488;2022-07-21T00:49:16;162.48;;;144.57;;
38613;SDS011;24369;49.480;8.488;2022-07-21T00:51:41;161.40;;;137.98;;
38613;SDS011;24369;49.480;8.488;2022-07-21T00:54:07;159.10;;;139.85;;
38613;SDS011;24369;49.480;8.488;2022-07-21T00:56:32;164.15;;;146.27;;
38613;SDS011;24369;49.480;8.488;2022-07-21T00:58:58;153.35;;;135.35;;
38613;SDS011;24369;49.480;8.488;2022-07-21T01:01:23;169.95;;;146.60;;
38613;SDS011;24369;49.480;8.488;2022-07-21T01:03:48;172.27;;;153.55;;
38613;SDS011;24369;49.480;8.488;2022-07-21T01:06:14;167.70;;;146.98;;
38613;SDS011;24369;49.480;8.488;2022-07-21T01:08:39;160.25;;;143.20;;
38613;SDS011;24369;49.480;8.488;2022-07-21T01:11:05;168.95;;;151.50;;
38613;SDS011;24369;49.480;8.488;2022-07-21T01:13:30;167.88;;;150.00;;
38613;SDS011;24369;49.480;8.488;2022-07-21T01:15:56;164.85;;;147.48;;
38613;SDS011;24369;49.480;8.488;2022-07-21T01:18:21;174.25;;;155.68;;
38613;SDS011;24369;49.480;8.488;2022-07-21T01:20:54;153.93;;;137.95;;
38613;SDS011;24369;49.480;8.488;2022-07-21T01:23:20;170.52;;;152.07;;
38613;SDS011;24369;49.480;8.488;2022-07-21T01:25:49;181.07;;;157.98;;
38613;SDS011;24369;49.480;8.488;2022-07-21T01:28:16;157.43;;;140.50;;
38613;SDS011;24369;49.480;8.488;2022-07-21T01:30:41;163.07;;;145.60;;
38613;SDS011;24369;49.480;8.488;2022-07-21T01:33:07;163.05;;;145.10;;
38613;SDS011;24369;49.480;8.488;2022-07-21T01:35:33;176.50;;;157.07;;
38613;SDS011;24369;49.480;8.488;2022-07-21T01:37:58;167.63;;;141.10;;
38613;SDS011;24369;49.480;8.488;2022-07-21T01:40:25;183.32;;;156.30;;
38613;SDS011;24369;49.480;8.488;2022-07-21T01:45:34;182.48;;;151.35;;
38613;SDS011;24369;49.480;8.488;2022-07-21T01:47:59;172.25;;;141.95;;
38613;SDS011;24369;49.480;8.488;2022-07-21T01:50:25;181.50;;;148.68;;
38613;SDS011;24369;49.480;8.488;2022-07-21T01:52:57;162.65;;;138.73;;
38613;SDS011;24369;49.480;8.488;2022-07-21T01:55:23;205.07;;;166.80;;
38613;SDS011;24369;49.480;8.488;2022-07-21T01:57:50;163.85;;;139.98;;
38613;SDS011;24369;49.480;8.488;2022-07-21T02:00:16;192.52;;;163.93;;
38613;SDS011;24369;49.480;8.488;2022-07-21T02:02:42;175.98;;;148.82;;
38613;SDS011;24369;49.480;8.488;2022-07-21T02:05:08;172.75;;;148.82;;
38613;SDS011;24369;49.480;8.488;2022-07-21T02:07:33;170.50;;;148.48;;
38613;SDS011;24369;49.480;8.488;2022-07-21T02:09:59;164.45;;;144.70;;
38613;SDS011;24369;49.480;8.488;2022-07-21T02:12:24;186.63;;;157.43;;
38613;SDS011;24369;49.480;8.488;2022-07-21T02:14:50;157.60;;;138.75;;
38613;SDS011;24369;49.480;8.488;2022-07-21T02:17:15;178.77;;;153.02;;
38613;SDS011;24369;49.480;8.488;2022-07-21T02:19:41;183.57;;;159.40;;
38613;SDS011;24369;49.480;8.488;2022-07-21T02:22:06;167.00;;;146.48;;
38613;SDS011;24369;49.480;8.488;2022-07-21T02:24:31;184.35;;;152.30;;
38613;SDS011;24369;49.480;8.488;2022-07-21T02:26:57;170.52;;;149.13;;
38613;SDS011;24369;49.480;8.488;2022-07-21T02:29:22;181.52;;;152.65;;
38613;SDS011;24369;49.480;8.488;2022-07-21T02:31:48;186.88;;;160.85;;
38613;SDS011;24369;49.480;8.488;2022-07-21T02:34:13;177.88;;;156.05;;
38613;SDS011;24369;49.480;8.488;2022-07-21T02:36:38;171.82;;;148.55;;
38613;SDS011;24369;49.480;8.488;2022-07-21T02:39:04;172.38;;;149.07;;
38613;SDS011;24369;49.480;8.488;2022-07-21T02:41:30;177.02;;;151.23;;
38613;SDS011;24369;49.480;8.488;2022-07-21T02:43:56;173.30;;;152.20;;
38613;SDS011;24369;49.480;8.488;2022-07-21T02:46:21;176.07;;;151.95;;
38613;SDS011;24369;49.480;8.488;2022-07-21T02:48:46;191.80;;;167.88;;
38613;SDS011;24369;49.480;8.488;2022-07-21T02:51:12;176.40;;;155.18;;
38613;SDS011;24369;49.480;8.488;2022-07-21T02:53:37;176.10;;;156.88;;
38613;SDS011;24369;49.480;8.488;2022-07-21T02:56:03;173.63;;;154.65;;
38613;SDS011;24369;49.480;8.488;2022-07-21T02:58:28;181.43;;;161.27;;
38613;SDS011;24369;49.480;8.488;2022-07-21T03:00:55;175.18;;;156.07;;
38613;SDS011;24369;49.480;8.488;2022-07-21T03:03:21;184.30;;;163.95;;
38613;SDS011;24369;49.480;8.488;2022-07-21T03:05:48;167.18;;;149.40;;
38613;SDS011;24369;49.480;8.488;2022-07-21T03:08:14;172.85;;;154.63;;
38613;SDS011;24369;49.480;8.488;2022-07-21T03:10:40;166.88;;;149.05;;
38613;SDS011;24369;49.480;8.488;2022-07-21T03:13:06;165.35;;;147.45;;
38613;SDS011;24369;49.480;8.488;2022-07-21T03:15:32;186.52;;;164.95;;
38613;SDS011;24369;49.480;8.488;2022-07-21T03:17:58;167.25;;;149.13;;
38613;SDS011;24369;49.480;8.488;2022-07-21T03:20:25;187.43;;;167.40;;
38613;SDS011;24369;49.480;8.488;2022-07-21T03:22:52;164.88;;;147.07;;
38613;SDS011;24369;49.480;8.488;2022-07-21T03:25:17;163.30;;;145.88;;
38613;SDS011;24369;49.480;8.488;2022-07-21T03:27:44;165.10;;;146.95;;
38613;SDS011;24369;49.480;8.488;2022-07-21T03:30:10;174.18;;;155.20;;
38613;SDS011;24369;49.480;8.488;2022-07-21T03:32:36;175.90;;;157.23;;
38613;SDS011;24369;49.480;8.488;2022-07-21T03:35:02;165.90;;;147.82;;
38613;SDS011;24369;49.480;8.488;2022-07-21T03:37:29;178.77;;;158.80;;
38613;SDS011;24369;49.480;8.488;2022-07-21T03:39:54;172.60;;;153.90;;
38613;SDS011;24369;49.480;8.488;2022-07-21T03:42:20;174.15;;;149.38;;
38613;SDS011;24369;49.480;8.488;2022-07-21T03:44:45;165.65;;;145.98;;
38613;SDS011;24369;49.480;8.488;2022-07-21T03:47:11;165.95;;;148.02;;
38613;SDS011;24369;49.480;8.488;2022-07-21T03:49:36;172.65;;;153.68;;
38613;SDS011;24369;49.480;8.488;2022-07-21T03:52:01;165.82;;;147.80;;
38613;SDS011;24369;49.480;8.488;2022-07-21T03:54:27;161.50;;;141.80;;
38613;SDS011;24369;49.480;8.488;2022-07-21T03:56:52;168.40;;;150.25;;
38613;SDS011;24369;49.480;8.488;2022-07-21T03:59:18;166.85;;;148.65;;
38613;SDS011;24369;49.480;8.488;2022-07-21T04:01:43;166.60;;;148.57;;
38613;SDS011;24369;49.480;8.488;2022-07-21T04:04:09;156.13;;;139.02;;
38613;SDS011;24369;49.480;8.488;2022-07-21T04:06:34;171.63;;;149.50;;
38613;SDS011;24369;49.480;8.488;2022-07-21T04:08:59;172.07;;;153.52;;
38613;SDS011;24369;49.480;8.488;2022-07-21T04:11:25;166.05;;;148.18;;
38613;SDS011;24369;49.480;8.488;2022-07-21T04:13:50;163.98;;;147.15;;
38613;SDS011;24369;49.480;8.488;2022-07-21T04:16:16;158.63;;;141.90;;
38613;SDS011;24369;49.480;8.488;2022-07-21T04:18:41;159.18;;;142.25;;
38613;SDS011;24369;49.480;8.488;2022-07-21T04:21:06;170.63;;;152.52;;
38613;SDS011;24369;49.480;8.488;2022-07-21T04:23:32;175.27;;;157.20;;
38613;SDS011;24369;49.480;8.488;2022-07-21T04:25:57;155.38;;;138.75;;
38613;SDS011;24369;49.480;8.488;2022-07-21T04:28:23;155.75;;;139.05;;
38613;SDS011;24369;49.480;8.488;2022-07-21T04:30:48;152.88;;;137.02;;
38613;SDS011;24369;49.480;8.488;2022-07-21T04:33:13;178.48;;;160.90;;
38613;SDS011;24369;49.480;8.488;2022-07-21T04:35:42;163.40;;;146.48;;
38613;SDS011;24369;49.480;8.488;2022-07-21T04:38:10;153.73;;;137.77;;
38613;SDS011;24369;49.480;8.488;2022-07-21T04:40:36;157.00;;;141.13;;
38613;SDS011;24369;49.480;8.488;2022-07-21T04:43:02;163.38;;;146.35;;
38613;SDS011;24369;49.480;8.488;2022-07-21T04:45:27;162.38;;;144.65;;
38613;SDS011;24369;49.480;8.488;2022-07-21T04:47:53;163.85;;;146.40;;
38613;SDS011;24369;49.480;8.488;2022-07-21T04:50:21;180.25;;;160.77;;
38613;SDS011;24369;49.480;8.488;2022-07-21T04:52:47;163.95;;;146.82;;
38613;SDS011;24369;49.480;8.488;2022-07-21T04:55:13;164.55;;;147.43;;
38613;SDS011;24369;49.480;8.488;2022-07-21T04:57:40;173.52;;;155.35;;
38613;SDS011;24369;49.480;8.488;2022-07-21T05:00:07;170.90;;;153.73;;
38613;SDS011;24369;49.480;8.488;2022-07-21T05:02:34;158.23;;;141.15;;
38613;SDS011;24369;49.480;8.488;2022-07-21T05:05:00;161.43;;;144.15;;
38613;SDS011;24369;49.480;8.488;2022-07-21T05:07:26;211.35;;;191.18;;
38613;SDS011;24369;49.480;8.488;2022-07-21T05:09:51;174.80;;;156.35;;
38613;SDS011;24369;49.480;8.488;2022-07-21T05:12:17;167.18;;;149.82;;
38613;SDS011;24369;49.480;8.488;2022-07-21T05:14:42;175.30;;;157.07;;
38613;SDS011;24369;49.480;8.488;2022-07-21T05:17:07;173.57;;;156.38;;
38613;SDS011;24369;49.480;8.488;2022-07-21T05:19:33;177.68;;;159.35;;
38613;SDS011;24369;49.480;8.488;2022-07-21T05:21:58;173.40;;;155.30;;
38613;SDS011;24369;49.480;8.488;2022-07-21T05:24:23;184.60;;;165.15;;
38613;SDS011;24369;49.480;8.488;2022-07-21T05:26:49;165.00;;;147.90;;
38613;SDS011;24369;49.480;8.488;2022-07-21T05:29:14;166.20;;;148.77;;
38613;SDS011;24369;49.480;8.488;2022-07-21T05:31:39;167.90;;;150.40;;
38613;SDS011;24369;49.480;8.488;2022-07-21T05:34:05;166.80;;;149.63;;
38613;SDS011;24369;49.480;8.488;2022-07-21T05:36:30;226.32;;;203.02;;
38613;SDS011;24369;49.480;8.488;2022-07-21T05:38:55;211.00;;;190.63;;
38613;SDS011;24369;49.480;8.488;2022-07-21T05:41:21;176.45;;;158.60;;
38613;SDS011;24369;49.480;8.488;2022-07-21T05:43:47;198.15;;;178.20;;
38613;SDS011;24369;49.480;8.488;2022-07-21T05:46:12;167.35;;;149.85;;
38613;SDS011;24369;49.480;8.488;2022-07-21T05:48:38;181.00;;;163.15;;
38613;SDS011;24369;49.480;8.488;2022-07-21T05:51:04;207.98;;;186.70;;
38613;SDS011;24369;49.480;8.488;2022-07-21T05:53:30;170.45;;;152.85;;
38613;SDS011;24369;49.480;8.488;2022-07-21T05:55:55;186.63;;;168.73;;
38613;SDS011;24369;49.480;8.488;2022-07-21T05:58:21;206.45;;;185.50;;
38613;SDS011;24369;49.480;8.488;2022-07-21T06:00:49;171.75;;;153.98;;
38613;SDS011;24369;49.480;8.488;2022-07-21T06:03:33;185.93;;;166.60;;
38613;SDS011;24369;49.480;8.488;2022-07-21T06:05:59;193.55;;;174.23;;
38613;SDS011;24369;49.480;8.488;2022-07-21T06:08:24;207.93;;;189.20;;
38613;SDS011;24369;49.480;8.488;2022-07-21T06:10:50;192.32;;;172.90;;
38613;SDS011;24369;49.480;8.488;2022-07-21T06:13:15;197.25;;;178.15;;
38613;SDS011;24369;49.480;8.488;2022-07-21T06:15:40;239.15;;;217.63;;
38613;SDS011;24369;49.480;8.488;2022-07-21T06:18:06;181.40;;;163.10;;
38613;SDS011;24369;49.480;8.488;2022-07-21T06:20:31;196.27;;;176.57;;
38613;SDS011;24369;49.480;8.488;2022-07-21T06:22:56;172.02;;;154.73;;
38613;SDS011;24369;49.480;8.488;2022-07-21T06:25:22;174.52;;;156.70;;
38613;SDS011;24369;49.480;8.488;2022-07-21T06:27:47;209.70;;;189.90;;
38613;SDS011;24369;49.480;8.488;2022-07-21T06:30:12;235.02;;;213.43;;
38613;SDS011;24369;49.480;8.488;2022-07-21T06:32:38;231.02;;;211.52;;
38613;SDS011;24369;49.480;8.488;2022-07-21T06:35:03;204.80;;;186.70;;
38613;SDS011;24369;49.480;8.488;2022-07-21T06:37:29;209.70;;;190.75;;
38613;SDS011;24369;49.480;8.488;2022-07-21T06:39:54;227.52;;;207.93;;
38613;SDS011;24369;49.480;8.488;2022-07-21T06:42:20;196.50;;;178.23;;
38613;SDS011;24369;49.480;8.488;2022-07-21T06:44:45;229.40;;;210.55;;
38613;SDS011;24369;49.480;8.488;2022-07-21T06:47:11;209.40;;;191.73;;
38613;SDS011;24369;49.480;8.488;2022-07-21T06:49:36;223.95;;;204.48;;
38613;SDS011;24369;49.480;8.488;2022-07-21T06:52:01;243.80;;;224.60;;
38613;SDS011;24369;49.480;8.488;2022-07-21T06:54:27;221.35;;;202.02;;
38613;SDS011;24369;49.480;8.488;2022-07-21T06:56:52;213.88;;;195.15;;
38613;SDS011;24369;49.480;8.488;2022-07-21T06:59:17;217.55;;;198.02;;
38613;SDS011;24369;49.480;8.488;2022-07-21T07:01:43;213.63;;;193.88;;
38613;SDS011;24369;49.480;8.488;2022-07-21T07:04:08;194.45;;;176.75;;
38613;SDS011;24369;49.480;8.488;2022-07-21T07:06:34;188.10;;;170.70;;
38613;SDS011;24369;49.480;8.488;2022-07-21T07:08:59;203.73;;;184.73;;
38613;SDS011;24369;49.480;8.488;2022-07-21T07:11:24;212.98;;;193.65;;
38613;SDS011;24369;49.480;8.488;2022-07-21T07:13:50;214.27;;;194.98;;
38613;SDS011;24369;49.480;8.488;2022-07-21T07:16:15;207.20;;;189.40;;
38613;SDS011;24369;49.480;8.488;2022-07-21T07:18:40;217.48;;;198.60;;
38613;SDS011;24369;49.480;8.488;2022-07-21T07:21:06;208.35;;;188.90;;
38613;SDS011;24369;49.480;8.488;2022-07-21T07:23:31;201.50;;;184.13;;
38613;SDS011;24369;49.480;8.488;2022-07-21T07:25:56;206.32;;;187.27;;
38613;SDS011;24369;49.480;8.488;2022-07-21T07:28:22;202.05;;;183.65;;
38613;SDS011;24369;49.480;8.488;2022-07-21T07:30:47;203.50;;;185.07;;
38613;SDS011;24369;49.480;8.488;2022-07-21T07:33:13;191.57;;;174.07;;
38613;SDS011;24369;49.480;8.488;2022-07-21T07:35:39;253.85;;;234.07;;
38613;SDS011;24369;49.480;8.488;2022-07-21T07:38:04;262.48;;;242.20;;
38613;SDS011;24369;49.480;8.488;2022-07-21T07:40:30;244.77;;;224.73;;
38613;SDS011;24369;49.480;8.488;2022-07-21T07:42:55;227.57;;;209.60;;
38613;SDS011;24369;49.480;8.488;2022-07-21T07:45:20;248.18;;;227.25;;
38613;SDS011;24369;49.480;8.488;2022-07-21T07:47:46;241.90;;;222.43;;
38613;SDS011;24369;49.480;8.488;2022-07-21T07:50:12;255.73;;;234.98;;
38613;SDS011;24369;49.480;8.488;2022-07-21T07:52:39;237.27;;;218.55;;
38613;SDS011;24369;49.480;8.488;2022-07-21T07:55:05;238.52;;;219.10;;
38613;SDS011;24369;49.480;8.488;2022-07-21T07:57:35;249.50;;;229.52;;
38613;SDS011;24369;49.480;8.488;2022-07-21T08:00:00;236.80;;;217.38;;
38613;SDS011;24369;49.480;8.488;2022-07-21T08:02:27;245.68;;;225.15;;
38613;SDS011;24369;49.480;8.488;2022-07-21T08:04:53;246.43;;;226.75;;
38613;SDS011;24369;49.480;8.488;2022-07-21T08:07:18;249.55;;;229.63;;
38613;SDS011;24369;49.480;8.488;2022-07-21T08:09:43;262.25;;;241.30;;
38613;SDS011;24369;49.480;8.488;2022-07-21T08:12:09;257.80;;;238.57;;
38613;SDS011;24369;49.480;8.488;2022-07-21T08:14:34;251.15;;;231.65;;
38613;SDS011;24369;49.480;8.488;2022-07-21T08:16:59;251.73;;;232.27;;
38613;SDS011;24369;49.480;8.488;2022-07-21T08:19:25;241.35;;;222.02;;
38613;SDS011;24369;49.480;8.488;2022-07-21T08:21:51;248.02;;;228.70;;
38613;SDS011;24369;49.480;8.488;2022-07-21T08:24:17;263.42;;;242.73;;
38613;SDS011;24369;49.480;8.488;2022-07-21T08:26:42;252.43;;;232.50;;
38613;SDS011;24369;49.480;8.488;2022-07-21T08:29:09;248.80;;;229.00;;
38613;SDS011;24369;49.480;8.488;2022-07-21T08:31:35;246.02;;;226.18;;
38613;SDS011;24369;49.480;8.488;2022-07-21T08:34:00;263.13;;;241.77;;
38613;SDS011;24369;49.480;8.488;2022-07-21T08:36:26;269.40;;;248.38;;
38613;SDS011;24369;49.480;8.488;2022-07-21T08:38:51;273.02;;;251.73;;
38613;SDS011;24369;49.480;8.488;2022-07-21T08:41:17;241.77;;;223.25;;
38613;SDS011;24369;49.480;8.488;2022-07-21T08:43:43;263.52;;;242.48;;
38613;SDS011;24369;49.480;8.488;2022-07-21T08:46:08;249.18;;;229.27;;
38613;SDS011;24369;49.480;8.488;2022-07-21T08:48:34;283.35;;;260.98;;
38613;SDS011;24369;49.480;8.488;2022-07-21T08:51:00;292.90;;;270.00;;
38613;SDS011;24369;49.480;8.488;2022-07-21T08:53:26;280.25;;;258.77;;
38613;SDS011;24369;49.480;8.488;2022-07-21T08:55:53;271.75;;;251.43;;
38613;SDS011;24369;49.480;8.488;2022-07-21T08:58:19;279.38;;;259.02;;
38613;SDS011;24369;49.480;8.488;2022-07-21T09:00:45;290.08;;;268.55;;
38613;SDS011;24369;49.480;8.488;2022-07-21T09:05:41;254.52;;;234.85;;
38613;SDS011;24369;49.480;8.488;2022-07-21T09:08:08;267.38;;;247.30;;
38613;SDS011;24369;49.480;8.488;2022-07-21T09:10:34;223.32;;;204.70;;
38613;SDS011;24369;49.480;8.488;2022-07-21T09:13:02;208.05;;;189.77;;
38613;SDS011;24369;49.480;8.488;2022-07-21T09:15:31;224.73;;;205.15;;
38613;SDS011;24369;49.480;8.488;2022-07-21T09:18:04;201.88;;;184.20;;
38613;SDS011;24369;49.480;8.488;2022-07-21T09:20:30;193.20;;;174.73;;
38613;SDS011;24369;49.480;8.488;2022-07-21T09:23:13;199.23;;;181.05;;
38613;SDS011;24369;49.480;8.488;2022-07-21T09:25:41;196.88;;;179.18;;
38613;SDS011;24369;49.480;8.488;2022-07-21T09:30:51;186.50;;;169.05;;
38613;SDS011;24369;49.480;8.488;2022-07-21T09:33:26;200.57;;;181.38;;
38613;SDS011;24369;49.480;8.488;2022-07-21T09:35:58;199.88;;;181.35;;
38613;SDS011;24369;49.480;8.488;2022-07-21T09:38:38;212.18;;;193.77;;
38613;SDS011;24369;49.480;8.488;2022-07-21T09:41:18;179.32;;;162.40;;
38613;SDS011;24369;49.480;8.488;2022-07-21T09:43:53;185.13;;;167.50;;
38613;SDS011;24369;49.480;8.488;2022-07-21T09:46:24;180.63;;;163.30;;
38613;SDS011;24369;49.480;8.488;2022-07-21T09:48:57;186.05;;;169.30;;
38613;SDS011;24369;49.480;8.488;2022-07-21T09:51:31;187.07;;;170.27;;
38613;SDS011;24369;49.480;8.488;2022-07-21T09:56:25;175.38;;;158.82;;
38613;SDS011;24369;49.480;8.488;2022-07-21T09:58:54;196.55;;;178.07;;
38613;SDS011;24369;49.480;8.488;2022-07-21T10:01:21;182.30;;;166.10;;
38613;SDS011;24369;49.480;8.488;2022-07-21T10:03:48;190.73;;;173.77;;
38613;SDS011;24369;49.480;8.488;2022-07-21T10:06:16;199.27;;;180.80;;
38613;SDS011;24369;49.480;8.488;2022-07-21T10:08:43;174.52;;;158.85;;
38613;SDS011;24369;49.480;8.488;2022-07-21T10:11:10;197.85;;;179.80;;
38613;SDS011;24369;49.480;8.488;2022-07-21T10:13:36;178.95;;;162.05;;
38613;SDS011;24369;49.480;8.488;2022-07-21T10:16:03;183.10;;;166.23;;
38613;SDS011;24369;49.480;8.488;2022-07-21T10:18:33;187.05;;;169.52;;
38613;SDS011;24369;49.480;8.488;2022-07-21T10:21:14;180.18;;;162.23;;
38613;SDS011;24369;49.480;8.488;2022-07-21T10:23:54;185.52;;;168.32;;
38613;SDS011;24369;49.480;8.488;2022-07-21T10:26:20;176.90;;;160.68;;
38613;SDS011;24369;49.480;8.488;2022-07-21T10:28:46;193.80;;;177.10;;
38613;SDS011;24369;49.480;8.488;2022-07-21T10:31:13;191.75;;;174.63;;
38613;SDS011;24369;49.480;8.488;2022-07-21T10:41:40;176.73;;;159.57;;
38613;SDS011;24369;49.480;8.488;2022-07-21T10:50:00;198.75;;;179.77;;
38613;SDS011;24369;49.480;8.488;2022-07-21T10:57:35;189.70;;;172.13;;
38613;SDS011;24369;49.480;8.488;2022-07-21T11:00:17;203.48;;;185.25;;
38613;SDS011;24369;49.480;8.488;2022-07-21T11:02:51;198.07;;;180.50;;
38613;SDS011;24369;49.480;8.488;2022-07-21T11:05:24;192.95;;;175.63;;
38613;SDS011;24369;49.480;8.488;2022-07-21T11:08:10;201.88;;;185.25;;
38613;SDS011;24369;49.480;8.488;2022-07-21T11:10:41;219.18;;;202.38;;
38613;SDS011;24369;49.480;8.488;2022-07-21T11:13:09;225.80;;;207.38;;
38613;SDS011;24369;49.480;8.488;2022-07-21T11:18:21;241.80;;;222.02;;
38613;SDS011;24369;49.480;8.488;2022-07-21T11:21:02;234.88;;;217.32;;
38613;SDS011;24369;49.480;8.488;2022-07-21T11:23:39;239.63;;;219.63;;
38613;SDS011;24369;49.480;8.488;2022-07-21T11:26:07;223.35;;;205.70;;
38613;SDS011;24369;49.480;8.488;2022-07-21T11:28:34;226.68;;;207.07;;
38613;SDS011;24369;49.480;8.488;2022-07-21T11:33:32;230.40;;;211.77;;
38613;SDS011;24369;49.480;8.488;2022-07-21T11:36:00;223.05;;;204.93;;
38613;SDS011;24369;49.480;8.488;2022-07-21T11:38:25;198.80;;;180.43;;
38613;SDS011;24369;49.480;8.488;2022-07-21T11:40:50;205.68;;;188.65;;
38613;SDS011;24369;49.480;8.488;2022-07-21T11:43:16;207.63;;;190.55;;
38613;SDS011;24369;49.480;8.488;2022-07-21T11:45:51;214.18;;;196.85;;
38613;SDS011;24369;49.480;8.488;2022-07-21T11:48:29;197.77;;;180.75;;
38613;SDS011;24369;49.480;8.488;2022-07-21T11:51:01;195.57;;;179.68;;
38613;SDS011;24369;49.480;8.488;2022-07-21T11:53:28;194.88;;;178.25;;
38613;SDS011;24369;49.480;8.488;2022-07-21T11:55:53;206.20;;;189.95;;
38613;SDS011;24369;49.480;8.488;2022-07-21T11:58:19;201.13;;;184.27;;
38613;SDS011;24369;49.480;8.488;2022-07-21T12:00:45;197.00;;;180.75;;
38613;SDS011;24369;49.480;8.488;2022-07-21T12:03:11;184.95;;;169.40;;
38613;SDS011;24369;49.480;8.488;2022-07-21T12:05:38;194.77;;;178.25;;
38613;SDS011;24369;49.480;8.488;2022-07-21T12:08:04;191.15;;;174.80;;
38613;SDS011;24369;49.480;8.488;2022-07-21T12:10:30;191.30;;;173.90;;
38613;SDS011;24369;49.480;8.488;2022-07-21T12:13:00;191.45;;;175.40;;
38613;SDS011;24369;49.480;8.488;2022-07-21T12:15:28;183.60;;;167.27;;
38613;SDS011;24369;49.480;8.488;2022-07-21T12:18:39;166.23;;;151.73;;
38613;SDS011;24369;49.480;8.488;2022-07-21T12:20:49;182.52;;;166.90;;
38613;SDS011;24369;49.480;8.488;2022-07-21T12:23:28;186.63;;;169.77;;
38613;SDS011;24369;49.480;8.488;2022-07-21T12:25:55;180.60;;;165.02;;
38613;SDS011;24369;49.480;8.488;2022-07-21T12:31:10;205.60;;;189.77;;
38613;SDS011;24369;49.480;8.488;2022-07-21T12:33:39;187.75;;;171.60;;
38613;SDS011;24369;49.480;8.488;2022-07-21T12:36:05;194.50;;;176.82;;
38613;SDS011;24369;49.480;8.488;2022-07-21T12:38:35;193.00;;;175.90;;
38613;SDS011;24369;49.480;8.488;2022-07-21T12:41:03;200.38;;;183.15;;
38613;SDS011;24369;49.480;8.488;2022-07-21T12:43:29;201.02;;;184.05;;
38613;SDS011;24369;49.480;8.488;2022-07-21T12:45:56;202.48;;;185.77;;
38613;SDS011;24369;49.480;8.488;2022-07-21T12:48:24;216.82;;;198.48;;
38613;SDS011;24369;49.480;8.488;2022-07-21T12:53:47;186.80;;;171.55;;
38613;SDS011;24369;49.480;8.488;2022-07-21T12:56:16;203.60;;;187.10;;
38613;SDS011;24369;49.480;8.488;2022-07-21T12:58:53;190.07;;;174.25;;
38613;SDS011;24369;49.480;8.488;2022-07-21T13:01:20;194.52;;;177.80;;
38613;SDS011;24369;49.480;8.488;2022-07-21T13:03:46;191.10;;;174.60;;
38613;SDS011;24369;49.480;8.488;2022-07-21T13:06:12;220.23;;;201.55;;
38613;SDS011;24369;49.480;8.488;2022-07-21T13:08:42;199.52;;;183.85;;
38613;SDS011;24369;49.480;8.488;2022-07-21T13:11:08;192.20;;;175.63;;
38613;SDS011;24369;49.480;8.488;2022-07-21T13:13:35;180.60;;;164.57;;
38613;SDS011;24369;49.480;8.488;2022-07-21T13:16:01;174.73;;;159.10;;
38613;SDS011;24369;49.480;8.488;2022-07-21T13:18:27;184.60;;;167.07;;
38613;SDS011;24369;49.480;8.488;2022-07-21T13:20:54;191.82;;;175.55;;
38613;SDS011;24369;49.480;8.488;2022-07-21T13:23:19;195.90;;;179.30;;
38613;SDS011;24369;49.480;8.488;2022-07-21T13:25:46;183.00;;;166.82;;
38613;SDS011;24369;49.480;8.488;2022-07-21T13:28:13;176.73;;;161.18;;
38613;SDS011;24369;49.480;8.488;2022-07-21T13:30:38;185.15;;;167.13;;
38613;SDS011;24369;49.480;8.488;2022-07-21T13:33:04;174.45;;;158.68;;
38613;SDS011;24369;49.480;8.488;2022-07-21T13:35:30;174.57;;;158.10;;
38613;SDS011;24369;49.480;8.488;2022-07-21T13:37:56;157.30;;;142.82;;
38613;SDS011;24369;49.480;8.488;2022-07-21T13:40:22;172.82;;;154.40;;
38613;SDS011;24369;49.480;8.488;2022-07-21T13:42:49;174.80;;;159.63;;
38613;SDS011;24369;49.480;8.488;2022-07-21T13:45:14;170.07;;;154.02;;
38613;SDS011;24369;49.480;8.488;2022-07-21T13:47:40;175.90;;;159.40;;
38613;SDS011;24369;49.480;8.488;2022-07-21T13:50:07;177.07;;;160.70;;
38613;SDS011;24369;49.480;8.488;2022-07-21T13:52:32;176.55;;;159.18;;
38613;SDS011;24369;49.480;8.488;2022-07-21T13:54:58;178.52;;;163.23;;
38613;SDS011;24369;49.480;8.488;2022-07-21T13:57:24;178.73;;;162.55;;
38613;SDS011;24369;49.480;8.488;2022-07-21T13:59:49;169.82;;;153.57;;
38613;SDS011;24369;49.480;8.488;2022-07-21T14:02:15;164.07;;;147.80;;
38613;SDS011;24369;49.480;8.488;2022-07-21T14:04:41;154.27;;;140.02;;
38613;SDS011;24369;49.480;8.488;2022-07-21T14:07:06;161.63;;;146.50;;
38613;SDS011;24369;49.480;8.488;2022-07-21T14:09:32;165.38;;;149.93;;
38613;SDS011;24369;49.480;8.488;2022-07-21T14:11:57;153.00;;;138.75;;
38613;SDS011;24369;49.480;8.488;2022-07-21T14:14:23;160.57;;;144.95;;
38613;SDS011;24369;49.480;8.488;2022-07-21T14:16:51;164.52;;;148.48;;
38613;SDS011;24369;49.480;8.488;2022-07-21T14:19:18;157.35;;;142.18;;
38613;SDS011;24369;49.480;8.488;2022-07-21T14:21:44;160.05;;;144.05;;
38613;SDS011;24369;49.480;8.488;2022-07-21T14:24:09;160.48;;;144.85;;
38613;SDS011;24369;49.480;8.488;2022-07-21T14:26:53;154.20;;;139.38;;
38613;SDS011;24369;49.480;8.488;2022-07-21T14:29:19;153.80;;;139.15;;
38613;SDS011;24369;49.480;8.488;2022-07-21T14:31:44;151.48;;;137.32;;
38613;SDS011;24369;49.480;8.488;2022-07-21T14:34:09;154.95;;;139.55;;